Hartford, Connecticut
Traffic Map
Current Weather Conditions
Hartford, Connecticut
Overcast Light Rain
Overcast
49°
Feels Like: 46°
Wind Chill: 46° Ceiling: 7000
Heat Index: 49° Visibility: 9mi
Dew Point: 43° Wind: 7mph
Humidity: 80% Direction: 330° (NNW)
Pressure: 29.75in Gusts: 0mph
Raw Report DataKHFD 241053Z 33006KT 9SM -RA FEW040 FEW055 OVC070 09/06 A2975 RMK AO2 RAB14 SLP075 P0001 T00940061
Traffic Incident Summary
Active as of:
Severity:
Category:
InformationThere was an issue retrieving the traffic information for this location. Please try a different location or try again shortly.
Advertisements
Track Severe Weather on mobile